createdAt,value
2022-08-07T00:02:36.230Z,102190.00
2022-08-07T00:05:23.606Z,102188.75
2022-08-07T00:08:05.384Z,102199.09
2022-08-07T00:10:57.503Z,102190.94
2022-08-07T00:13:44.810Z,102192.34
2022-08-07T00:16:36.478Z,102189.41
2022-08-07T00:19:26.038Z,102186.72
2022-08-07T00:22:09.846Z,102190.38
2022-08-07T00:24:52.031Z,102184.91
2022-08-07T00:27:35.843Z,102185.88
2022-08-07T00:30:32.496Z,102183.34
2022-08-07T00:34:09.001Z,102174.59
2022-08-07T00:36:50.164Z,102178.00
2022-08-07T00:39:30.716Z,102172.75
2022-08-07T00:42:10.856Z,102173.31
2022-08-07T00:44:51.868Z,102174.84
2022-08-07T00:48:09.304Z,102180.94
2022-08-07T00:50:50.752Z,102174.84
2022-08-07T00:53:39.101Z,102175.03
2022-08-07T00:56:33.872Z,102179.19
2022-08-07T00:59:15.991Z,102179.13
2022-08-07T01:01:57.871Z,102180.03
2022-08-07T01:04:43.181Z,102175.81
2022-08-07T01:07:28.661Z,102183.22
2022-08-07T01:10:12.548Z,102183.19
2022-08-07T01:12:56.918Z,102179.78
2022-08-07T01:16:05.066Z,102180.78
2022-08-07T01:18:46.222Z,102180.16
2022-08-07T01:21:27.616Z,102180.66
2022-08-07T01:24:13.574Z,102184.59
2022-08-07T01:26:55.552Z,102179.53
2022-08-07T01:29:38.938Z,102179.53
2022-08-07T01:32:22.538Z,102176.88
2022-08-07T01:35:36.862Z,102179.19
2022-08-07T01:38:29.302Z,102169.75
2022-08-07T01:41:27.537Z,102164.03
2022-08-07T01:44:11.626Z,102163.63
2022-08-07T01:46:55.500Z,102160.34
2022-08-07T01:49:38.493Z,102158.91
2022-08-07T01:52:19.867Z,102152.72
2022-08-07T01:55:03.167Z,102158.81
2022-08-07T01:58:06.198Z,102155.41
2022-08-07T02:00:57.961Z,102160.50
2022-08-07T02:03:55.671Z,102158.81
2022-08-07T02:06:35.638Z,102158.25
2022-08-07T02:09:51.994Z,102164.41
2022-08-07T02:12:19.394Z,102152.88
2022-08-07T02:15:11.404Z,102146.06
2022-08-07T02:17:59.916Z,102149.53
2022-08-07T02:20:55.925Z,102143.19
2022-08-07T02:23:39.532Z,102146.91
2022-08-07T02:26:32.919Z,102142.69
2022-08-07T02:29:15.959Z,102142.81
2022-08-07T02:32:05.251Z,102144.63
2022-08-07T02:34:49.006Z,102138.72
2022-08-07T02:37:46.675Z,102139.81
2022-08-07T02:40:35.255Z,102139.72
2022-08-07T02:43:18.070Z,102139.72
2022-08-07T02:46:02.213Z,102136.19
2022-08-07T02:48:54.711Z,102134.78
2022-08-07T02:51:42.668Z,102139.38
2022-08-07T02:54:36.468Z,102136.22
2022-08-07T02:57:21.572Z,102134.78
2022-08-07T03:00:15.620Z,102134.78
2022-08-07T03:02:59.469Z,102129.00
2022-08-07T03:05:42.171Z,102139.53
2022-08-07T03:08:26.765Z,102137.00
2022-08-07T03:11:09.675Z,102133.38
2022-08-07T03:13:57.559Z,102138.56
2022-08-07T03:16:43.799Z,102135.44
2022-08-07T03:19:28.935Z,102134.84
2022-08-07T03:22:20.049Z,102129.75
2022-08-07T03:25:05.212Z,102136.03
2022-08-07T03:28:09.371Z,102139.56
2022-08-07T03:31:14.552Z,102138.84
2022-08-07T03:33:59.424Z,102134.56
2022-08-07T03:36:40.389Z,102138.47
2022-08-07T03:39:45.918Z,102131.69
2022-08-07T03:42:22.418Z,102132.03
2022-08-07T03:45:05.010Z,102139.19
2022-08-07T03:47:51.267Z,102134.75
2022-08-07T03:50:35.799Z,102136.06
2022-08-07T03:53:18.194Z,102138.84
2022-08-07T03:56:04.413Z,102138.13
2022-08-07T03:59:08.774Z,102144.03
2022-08-07T04:01:51.052Z,102137.53
2022-08-07T04:04:35.350Z,102144.66
2022-08-07T04:07:18.135Z,102149.63
2022-08-07T04:10:05.903Z,102149.75
2022-08-07T04:12:56.214Z,102144.16
2022-08-07T04:15:36.962Z,102149.63
2022-08-07T04:18:56.893Z,102140.06
2022-08-07T04:21:18.877Z,102140.66
2022-08-07T04:24:07.378Z,102139.22
2022-08-07T04:27:15.084Z,102148.66
2022-08-07T04:30:04.595Z,102143.81
2022-08-07T04:32:58.442Z,102146.09
2022-08-07T04:35:53.966Z,102146.97
2022-08-07T04:38:38.603Z,102143.31
2022-08-07T04:41:19.307Z,102150.34
2022-08-07T04:44:13.189Z,102143.06
2022-08-07T04:47:08.478Z,102140.88
2022-08-07T04:50:03.880Z,102147.69
2022-08-07T04:52:52.829Z,102145.72
2022-08-07T04:58:14.418Z,102142.69
2022-08-07T05:01:57.326Z,102145.50
2022-08-07T05:04:43.964Z,102145.97
2022-08-07T05:07:48.645Z,102145.22
2022-08-07T05:10:48.685Z,102145.38
2022-08-07T05:14:54.299Z,102139.78
2022-08-07T05:16:34.114Z,102137.44
2022-08-07T05:19:43.975Z,102141.16
2022-08-07T05:22:27.629Z,102146.97
2022-08-07T05:25:26.286Z,102141.97
2022-08-07T05:28:22.735Z,102137.44
2022-08-07T05:31:04.868Z,102141.13
2022-08-07T05:34:01.398Z,102138.56
2022-08-07T05:36:53.091Z,102145.19
2022-08-07T05:40:16.822Z,102147.06
2022-08-07T05:42:55.865Z,102140.25
2022-08-07T05:45:56.496Z,102146.16
2022-08-07T05:48:38.135Z,102155.25
2022-08-07T05:51:40.107Z,102150.75
2022-08-07T05:54:44.601Z,102158.94
2022-08-07T05:57:30.016Z,102149.50
2022-08-07T06:00:19.892Z,102152.66
2022-08-07T06:03:10.320Z,102164.78
2022-08-07T06:05:56.498Z,102166.25
2022-08-07T06:08:42.446Z,102156.03
2022-08-07T06:11:27.173Z,102158.56
2022-08-07T06:14:12.685Z,102164.34
2022-08-07T06:17:07.180Z,102159.31
2022-08-07T06:20:03.392Z,102164.25
2022-08-07T06:22:50.672Z,102165.25
2022-08-07T06:25:54.814Z,102173.69
2022-08-07T06:28:50.497Z,102171.97
2022-08-07T06:31:46.870Z,102171.53
2022-08-07T06:34:32.748Z,102174.47
2022-08-07T06:37:17.184Z,102171.16
2022-08-07T06:40:13.135Z,102166.16
2022-08-07T06:42:57.898Z,102172.31
2022-08-07T06:45:56.289Z,102169.97
2022-08-07T06:48:41.832Z,102169.47
2022-08-07T06:51:33.336Z,102168.78
2022-08-07T06:55:34.449Z,102162.44
2022-08-07T06:57:21.081Z,102162.97
2022-08-07T07:00:21.445Z,102165.22
2022-08-07T07:03:08.801Z,102158.34
2022-08-07T07:06:02.995Z,102175.56
2022-08-07T07:08:49.539Z,102169.28
2022-08-07T07:12:08.606Z,102166.59
2022-08-07T07:14:33.905Z,102162.50
2022-08-07T07:17:38.786Z,102158.03
2022-08-07T07:20:21.950Z,102158.91
2022-08-07T07:24:08.317Z,102168.47
2022-08-07T07:26:32.752Z,102161.19
2022-08-07T07:29:39.812Z,102166.81
2022-08-07T07:32:14.049Z,102162.41
2022-08-07T07:34:58.918Z,102167.22
2022-08-07T07:37:47.155Z,102159.00
2022-08-07T07:40:34.080Z,102161.41
2022-08-07T07:43:27.405Z,102162.41
2022-08-07T07:46:50.358Z,102168.56
2022-08-07T07:50:35.903Z,102167.09
2022-08-07T07:52:22.123Z,102159.88
2022-08-07T07:55:08.474Z,102155.53
2022-08-07T07:57:54.071Z,102151.91
2022-08-07T08:00:40.478Z,102149.81
2022-08-07T08:04:06.471Z,102155.84
2022-08-07T08:06:26.062Z,102138.91
2022-08-07T08:09:08.203Z,102144.97
2022-08-07T08:12:01.833Z,102142.47
2022-08-07T08:14:46.149Z,102141.47
2022-08-07T08:17:58.016Z,102135.31
2022-08-07T08:20:32.848Z,102135.06
2022-08-07T08:23:35.856Z,102135.28
2022-08-07T08:26:34.696Z,102136.94
2022-08-07T08:29:17.988Z,102133.03
2022-08-07T08:32:18.508Z,102137.91
2022-08-07T08:34:59.442Z,102142.44
2022-08-07T08:38:00.902Z,102140.19
2022-08-07T08:40:59.273Z,102128.94
2022-08-07T08:44:02.973Z,102128.09
2022-08-07T08:47:17.189Z,102117.75
2022-08-07T08:50:06.078Z,102112.63
2022-08-07T08:53:06.281Z,102116.56
2022-08-07T08:55:54.414Z,102117.44
2022-08-07T08:58:50.566Z,102118.81
2022-08-07T09:01:46.578Z,102113.25
2022-08-07T09:04:36.460Z,102111.34
2022-08-07T09:07:23.138Z,102103.75
2022-08-07T09:10:21.193Z,102107.00
2022-08-07T09:13:18.452Z,102114.78
2022-08-07T09:16:25.229Z,102113.84
2022-08-07T09:19:52.041Z,102116.25
2022-08-07T09:24:31.147Z,102114.25
2022-08-07T09:26:02.767Z,102100.91
2022-08-07T09:30:01.792Z,102100.44
2022-08-07T09:32:02.792Z,102098.31
2022-08-07T09:34:54.058Z,102092.44
2022-08-07T09:37:48.299Z,102090.34
2022-08-07T09:40:41.867Z,102077.63
2022-08-07T09:43:40.564Z,102087.47
2022-08-07T09:47:50.580Z,102072.50
2022-08-07T09:50:19.167Z,102081.06
2022-08-07T09:53:13.417Z,102065.50
2022-08-07T09:56:19.824Z,102070.97
2022-08-07T09:59:44.694Z,102064.97
2022-08-07T10:04:06.114Z,102071.16
2022-08-07T10:06:36.681Z,102064.06
2022-08-07T10:09:42.488Z,102057.09
2022-08-07T10:12:39.698Z,102060.41
2022-08-07T10:15:28.723Z,102049.66
2022-08-07T10:18:26.662Z,102050.19
2022-08-07T10:22:12.049Z,102051.03
2022-08-07T10:24:40.393Z,102041.53
2022-08-07T10:27:55.981Z,102038.22
2022-08-07T10:31:12.631Z,102040.97
2022-08-07T10:34:14.323Z,102034.94
2022-08-07T10:37:05.666Z,102030.41
2022-08-07T10:40:10.090Z,102029.28
2022-08-07T10:42:59.844Z,102032.19
2022-08-07T10:45:48.113Z,102027.94
2022-08-07T10:48:44.251Z,102020.66
2022-08-07T10:51:39.154Z,102019.66
2022-08-07T10:54:30.027Z,102016.25
2022-08-07T10:57:16.695Z,102015.63
2022-08-07T11:00:08.952Z,102008.94
2022-08-07T11:03:11.010Z,102009.59
2022-08-07T11:05:56.555Z,102010.13
2022-08-07T11:08:41.628Z,101998.75
2022-08-07T11:11:26.931Z,102000.78
2022-08-07T11:14:43.607Z,101988.84
2022-08-07T11:17:23.189Z,101979.50
2022-08-07T11:20:07.708Z,101985.84
2022-08-07T11:22:56.476Z,101978.47
2022-08-07T11:25:48.255Z,101973.97
2022-08-07T11:28:35.643Z,101980.50
2022-08-07T11:31:23.428Z,101971.16
2022-08-07T11:34:10.290Z,101968.03
2022-08-07T11:36:57.772Z,101969.16
2022-08-07T11:39:59.741Z,101964.47
2022-08-07T11:42:58.275Z,101958.09
2022-08-07T11:45:59.243Z,101960.78
2022-08-07T11:49:50.458Z,101953.03
2022-08-07T11:52:29.338Z,101948.53
2022-08-07T11:56:11.957Z,101950.97
2022-08-07T11:58:33.334Z,101944.75
2022-08-07T12:01:53.203Z,101951.97
2022-08-07T12:04:36.431Z,101944.31
2022-08-07T12:07:27.659Z,101941.00
2022-08-07T12:10:26.493Z,101941.03
2022-08-07T12:13:17.035Z,101944.34
2022-08-07T12:16:09.254Z,101939.28
2022-08-07T12:18:56.892Z,101941.72
2022-08-07T12:21:55.987Z,101937.38
2022-08-07T12:25:07.848Z,101935.44
2022-08-07T12:28:08.667Z,101928.22
2022-08-07T12:30:54.395Z,101930.28
2022-08-07T12:34:00.699Z,101935.16
2022-08-07T12:36:37.585Z,101929.63
2022-08-07T12:39:43.170Z,101930.19
2022-08-07T12:42:28.654Z,101926.06
2022-08-07T12:45:20.749Z,101921.28
2022-08-07T12:48:13.251Z,101926.00
2022-08-07T12:51:13.190Z,101925.00
2022-08-07T12:54:36.974Z,101925.94
2022-08-07T12:57:19.719Z,101925.31
2022-08-07T13:00:00.710Z,101921.38
2022-08-07T13:02:52.011Z,101922.81
2022-08-07T13:06:03.525Z,101917.81
2022-08-07T13:08:53.707Z,101913.19
2022-08-07T13:12:01.989Z,101912.66
2022-08-07T13:14:55.270Z,101914.88
2022-08-07T13:17:43.468Z,101913.00
2022-08-07T13:20:29.160Z,101920.22
2022-08-07T13:24:00.712Z,101910.00
2022-08-07T13:26:53.722Z,101908.47
2022-08-07T13:29:42.500Z,101905.97
2022-08-07T13:32:32.368Z,101897.78
2022-08-07T13:36:00.644Z,101899.28
2022-08-07T13:38:31.022Z,101893.91
2022-08-07T13:41:33.184Z,101893.31
2022-08-07T13:44:13.743Z,101885.31
2022-08-07T13:46:58.820Z,101883.81
2022-08-07T13:50:33.063Z,101874.03
2022-08-07T13:52:47.045Z,101870.16
2022-08-07T13:55:28.274Z,101873.50
2022-08-07T13:58:32.571Z,101871.78
2022-08-07T14:01:28.669Z,101867.31
2022-08-07T14:04:16.910Z,101856.69
2022-08-07T14:07:09.615Z,101863.06
2022-08-07T14:10:20.384Z,101864.47
2022-08-07T14:13:03.908Z,101853.94
2022-08-07T14:15:44.369Z,101860.88
2022-08-07T14:18:39.881Z,101857.31
2022-08-07T14:22:41.242Z,101855.81
2022-08-07T14:24:26.304Z,101859.59
2022-08-07T14:27:16.263Z,101860.63
2022-08-07T14:30:13.907Z,101849.56
2022-08-07T14:32:56.897Z,101855.47
2022-08-07T14:35:45.266Z,101856.16
2022-08-07T14:38:31.435Z,101847.28
2022-08-07T14:41:19.655Z,101846.19
2022-08-07T14:44:15.940Z,101845.56
2022-08-07T14:47:14.194Z,101844.25
2022-08-07T14:49:59.293Z,101841.31
2022-08-07T14:52:40.611Z,101836.75
2022-08-07T14:55:23.158Z,101838.66
2022-08-07T14:58:04.912Z,101844.75
2022-08-07T15:00:49.024Z,101839.97
2022-08-07T15:06:32.465Z,101835.66
2022-08-07T15:09:59.174Z,101829.44
2022-08-07T15:12:25.543Z,101835.31
2022-08-07T15:15:31.936Z,101834.50
2022-08-07T15:18:33.589Z,101833.69
2022-08-07T15:21:43.721Z,101830.06
2022-08-07T15:25:13.967Z,101825.47
2022-08-07T15:27:26.622Z,101824.63
2022-08-07T15:33:19.664Z,101819.59
2022-08-07T15:36:05.403Z,101830.50
2022-08-07T15:38:59.249Z,101819.84
2022-08-07T15:42:44.541Z,101823.78
2022-08-07T15:45:02.286Z,101824.22
2022-08-07T15:48:12.527Z,101811.34
2022-08-07T15:51:08.289Z,101809.22
2022-08-07T15:53:53.667Z,101812.38
2022-08-07T15:56:36.207Z,101810.50
2022-08-07T15:59:20.116Z,101809.50
2022-08-07T16:02:25.635Z,101805.13
2022-08-07T16:05:23.120Z,101800.94
2022-08-07T16:08:38.805Z,101800.50
2022-08-07T16:11:40.133Z,101800.94
2022-08-07T16:14:34.221Z,101804.69
2022-08-07T16:18:01.972Z,101798.19
2022-08-07T16:20:55.315Z,101798.84
2022-08-07T16:23:58.626Z,101798.25
2022-08-07T16:27:01.081Z,101799.25
2022-08-07T16:30:11.485Z,101795.50
2022-08-07T16:34:05.979Z,101798.22
2022-08-07T16:36:31.334Z,101789.69
2022-08-07T16:39:40.683Z,101788.41
2022-08-07T16:42:40.012Z,101793.22
2022-08-07T16:46:21.312Z,101787.38
2022-08-07T16:50:28.883Z,101781.94
2022-08-07T16:52:50.701Z,101784.84
2022-08-07T16:55:27.326Z,101778.34
2022-08-07T16:58:54.273Z,101785.00
2022-08-07T17:01:41.234Z,101785.84
2022-08-07T17:04:34.341Z,101778.13
2022-08-07T17:07:28.127Z,101781.66
2022-08-07T17:10:36.017Z,101781.41
2022-08-07T17:14:17.919Z,101779.94
2022-08-07T17:16:55.549Z,101772.88
2022-08-07T17:20:02.362Z,101781.78
2022-08-07T17:22:57.744Z,101778.25
2022-08-07T17:25:52.069Z,101783.22
2022-08-07T17:28:38.285Z,101777.19
2022-08-07T17:31:19.969Z,101773.59
2022-08-07T17:34:33.038Z,101777.75
2022-08-07T17:38:11.504Z,101780.03
2022-08-07T17:40:30.710Z,101786.06
2022-08-07T17:44:00.871Z,101783.78
2022-08-07T17:46:34.400Z,101786.06
2022-08-07T17:49:24.125Z,101778.50
2022-08-07T17:52:12.877Z,101782.63
2022-08-07T17:54:56.109Z,101777.81
2022-08-07T17:57:59.175Z,101782.81
2022-08-07T18:00:49.221Z,101780.47
2022-08-07T18:04:04.214Z,101779.22
2022-08-07T18:06:42.875Z,101783.34
2022-08-07T18:10:06.725Z,101782.50
2022-08-07T18:12:34.441Z,101780.56
2022-08-07T18:15:20.217Z,101784.50
2022-08-07T18:18:45.267Z,101787.81
2022-08-07T18:21:28.766Z,101794.66
2022-08-07T18:24:33.190Z,101790.22
2022-08-07T18:27:38.422Z,101789.53
2022-08-07T18:30:32.621Z,101792.66
2022-08-07T18:33:55.183Z,101799.00
2022-08-07T18:36:55.209Z,101796.81
2022-08-07T18:40:08.614Z,101795.31
2022-08-07T18:43:06.583Z,101803.19
2022-08-07T18:46:24.748Z,101803.97
2022-08-07T18:50:31.464Z,101804.38
2022-08-07T18:52:40.894Z,101801.53
2022-08-07T18:55:40.524Z,101811.81
2022-08-07T18:58:39.095Z,101811.28
2022-08-07T19:02:17.988Z,101811.78
2022-08-07T19:04:57.581Z,101809.56
2022-08-07T19:07:52.936Z,101813.38
2022-08-07T19:10:51.205Z,101819.63
2022-08-07T19:13:50.960Z,101824.13
2022-08-07T19:17:00.404Z,101823.53
2022-08-07T19:19:39.941Z,101836.84
2022-08-07T19:22:31.150Z,101833.41
2022-08-07T19:26:23.663Z,101843.47
2022-08-07T19:28:29.593Z,101846.59
2022-08-07T19:31:42.157Z,101843.47
2022-08-07T19:34:15.857Z,101850.78
2022-08-07T19:37:17.645Z,101855.72
2022-08-07T19:40:01.859Z,101861.34
2022-08-07T19:42:55.666Z,101856.88
2022-08-07T19:46:07.151Z,101862.44
2022-08-07T19:48:44.828Z,101861.22
2022-08-07T19:51:50.803Z,101868.53
2022-08-07T19:54:55.651Z,101859.78
2022-08-07T19:58:01.099Z,101867.09
2022-08-07T20:00:54.036Z,101861.38
2022-08-07T20:03:37.235Z,101871.22
2022-08-07T20:06:43.632Z,101871.75
2022-08-07T20:10:33.352Z,101871.41
2022-08-07T20:12:34.374Z,101874.84
2022-08-07T20:15:22.148Z,101875.53
2022-08-07T20:18:18.341Z,101870.53
2022-08-07T20:21:02.130Z,101873.22
2022-08-07T20:23:48.454Z,101871.88
2022-08-07T20:26:46.167Z,101878.81
2022-08-07T20:29:48.274Z,101880.38
2022-08-07T20:32:41.206Z,101885.59
2022-08-07T20:35:33.523Z,101882.72
2022-08-07T20:38:15.249Z,101876.03
2022-08-07T20:41:01.701Z,101873.69
2022-08-07T20:43:47.857Z,101872.34
2022-08-07T20:46:34.752Z,101878.44
2022-08-07T20:49:59.148Z,101878.09
2022-08-07T20:52:50.774Z,101876.09
2022-08-07T20:55:28.215Z,101876.81
2022-08-07T20:58:26.560Z,101873.09
2022-08-07T21:01:19.952Z,101869.25
2022-08-07T21:04:21.696Z,101873.47
2022-08-07T21:07:04.034Z,101869.59
2022-08-07T21:10:00.275Z,101863.03
2022-08-07T21:12:41.307Z,101868.75
2022-08-07T21:15:48.044Z,101870.94
2022-08-07T21:18:29.397Z,101870.78
2022-08-07T21:21:11.797Z,101871.25
2022-08-07T21:24:00.031Z,101870.09
2022-08-07T21:26:44.979Z,101868.06
2022-08-07T21:29:33.462Z,101869.41
2022-08-07T21:32:48.460Z,101872.78
2022-08-07T21:36:00.085Z,101871.59
2022-08-07T21:38:31.622Z,101868.06
2022-08-07T21:41:20.430Z,101867.88
2022-08-07T21:44:28.492Z,101875.28
2022-08-07T21:47:17.162Z,101873.44
2022-08-07T21:50:02.881Z,101870.41
2022-08-07T21:52:49.362Z,101875.41
2022-08-07T21:55:38.434Z,101877.75
2022-08-07T21:58:32.911Z,101882.78
2022-08-07T22:01:18.486Z,101878.59
2022-08-07T22:04:08.638Z,101879.41
2022-08-07T22:07:02.314Z,101886.09
2022-08-07T22:09:54.118Z,101888.97
2022-08-07T22:12:41.785Z,101890.47
2022-08-07T22:16:39.781Z,101885.38
2022-08-07T22:18:34.776Z,101886.03
2022-08-07T22:22:04.999Z,101882.16
2022-08-07T22:24:44.475Z,101892.22
2022-08-07T22:27:51.237Z,101891.00
2022-08-07T22:30:37.366Z,101896.00
2022-08-07T22:33:18.196Z,101889.28
2022-08-07T22:36:30.275Z,101890.78
2022-08-07T22:39:23.247Z,101898.28
2022-08-07T22:42:34.842Z,101900.59
2022-08-07T22:46:40.812Z,101902.94
2022-08-07T22:49:02.226Z,101900.19
2022-08-07T22:51:58.213Z,101903.50
2022-08-07T22:54:54.672Z,101901.47
2022-08-07T22:57:50.109Z,101899.25
2022-08-07T23:00:49.271Z,101899.25
2022-08-07T23:03:58.479Z,101896.03
2022-08-07T23:06:54.796Z,101901.88
2022-08-07T23:10:05.950Z,101902.03
2022-08-07T23:12:56.677Z,101904.19
2022-08-07T23:16:06.386Z,101908.16
2022-08-07T23:19:13.952Z,101908.97
2022-08-07T23:21:59.146Z,101913.94
2022-08-07T23:24:48.835Z,101909.75
2022-08-07T23:28:21.223Z,101900.88
2022-08-07T23:31:06.433Z,101899.44
2022-08-07T23:34:35.390Z,101902.44
2022-08-07T23:38:01.657Z,101910.09
2022-08-07T23:40:43.780Z,101908.72
2022-08-07T23:43:51.258Z,101899.16
2022-08-07T23:46:50.764Z,101906.34
2022-08-07T23:49:52.780Z,101906.50
2022-08-07T23:53:00.908Z,101907.97
2022-08-07T23:55:51.880Z,101908.97
2022-08-07T23:58:39.891Z,101903.22
